createdAt,value
2023-01-19T00:00:27.088Z,31.70
2023-01-19T00:02:54.826Z,23.65
2023-01-19T00:05:21.545Z,18.98
2023-01-19T00:07:48.313Z,24.50
2023-01-19T00:10:15.511Z,21.20
2023-01-19T00:12:42.159Z,22.40
2023-01-19T00:15:09.313Z,22.00
2023-01-19T00:17:35.941Z,20.00
2023-01-19T00:20:03.751Z,23.45
2023-01-19T00:22:30.374Z,27.15
2023-01-19T00:24:57.308Z,22.08
2023-01-19T00:27:24.772Z,20.85
2023-01-19T00:29:51.445Z,22.13
2023-01-19T00:32:19.700Z,19.83
2023-01-19T00:34:49.731Z,23.85
2023-01-19T00:37:17.391Z,22.42
2023-01-19T00:39:44.766Z,22.20
2023-01-19T00:42:31.158Z,21.23
2023-01-19T00:44:57.944Z,20.20
2023-01-19T00:47:25.119Z,21.65
2023-01-19T00:49:51.948Z,19.25
2023-01-19T00:52:18.736Z,19.85
2023-01-19T00:54:45.417Z,19.80
2023-01-19T00:57:12.527Z,23.65
2023-01-19T00:59:39.141Z,18.98
2023-01-19T01:02:05.992Z,22.35
2023-01-19T01:04:32.734Z,22.10
2023-01-19T01:06:59.735Z,20.98
2023-01-19T01:09:26.440Z,21.67
2023-01-19T01:11:53.291Z,23.38
2023-01-19T01:14:20.100Z,21.85
2023-01-19T01:16:46.796Z,21.33
2023-01-19T01:19:13.449Z,22.60
2023-01-19T01:21:40.076Z,24.48
2023-01-19T01:24:07.667Z,25.73
2023-01-19T01:26:34.319Z,24.40
2023-01-19T01:29:01.502Z,24.95
2023-01-19T01:31:28.138Z,25.27
2023-01-19T01:33:54.775Z,24.98
2023-01-19T01:36:21.407Z,22.20
2023-01-19T01:38:48.217Z,23.20
2023-01-19T01:41:14.890Z,19.92
2023-01-19T01:43:43.550Z,23.73
2023-01-19T01:46:10.357Z,20.63
2023-01-19T01:48:39.236Z,24.20
2023-01-19T01:51:24.968Z,23.73
2023-01-19T01:54:27.159Z,21.05
2023-01-19T01:56:57.796Z,22.17
2023-01-19T01:59:38.896Z,20.70
2023-01-19T02:02:36.442Z,22.83
2023-01-19T02:05:07.936Z,22.80
2023-01-19T02:08:09.201Z,25.42
2023-01-19T02:10:54.654Z,22.45
2023-01-19T02:13:21.979Z,22.98
2023-01-19T02:15:54.312Z,23.38
2023-01-19T02:18:26.233Z,26.90
2023-01-19T02:21:19.950Z,23.30
2023-01-19T02:23:50.590Z,23.27
2023-01-19T02:26:30.902Z,25.73
2023-01-19T02:29:06.997Z,23.73
2023-01-19T02:31:35.153Z,25.35
2023-01-19T02:34:04.043Z,25.85
2023-01-19T02:36:58.400Z,17.85
2023-01-19T02:39:34.814Z,24.83
2023-01-19T02:42:06.172Z,23.50
2023-01-19T02:44:34.763Z,21.58
2023-01-19T02:47:01.643Z,23.23
2023-01-19T02:49:30.041Z,21.02
2023-01-19T02:51:57.855Z,24.00
2023-01-19T02:54:41.832Z,27.08
2023-01-19T02:57:35.433Z,24.25
2023-01-19T03:00:27.010Z,20.83
2023-01-19T03:03:19.439Z,19.77
2023-01-19T03:06:03.207Z,21.83
2023-01-19T03:08:39.605Z,22.52
2023-01-19T03:11:13.942Z,25.27
2023-01-19T03:13:52.385Z,24.48
2023-01-19T03:16:37.943Z,24.85
2023-01-19T03:19:10.684Z,24.33
2023-01-19T03:21:39.687Z,24.42
2023-01-19T03:24:08.121Z,21.42
2023-01-19T03:26:45.425Z,21.38
2023-01-19T03:29:14.227Z,23.05
2023-01-19T03:31:46.174Z,20.98
2023-01-19T03:34:16.083Z,21.27
2023-01-19T03:36:46.357Z,20.77
2023-01-19T03:39:17.789Z,21.83
2023-01-19T03:41:48.388Z,19.77
2023-01-19T03:44:16.038Z,28.00
2023-01-19T03:46:44.346Z,18.88
2023-01-19T03:49:11.598Z,21.45
2023-01-19T03:51:39.653Z,18.77
2023-01-19T03:54:07.434Z,20.30
2023-01-19T03:56:34.030Z,21.65
2023-01-19T03:59:00.726Z,25.42
2023-01-19T04:01:27.809Z,21.75
2023-01-19T04:03:54.631Z,22.45
2023-01-19T04:06:21.617Z,23.52
2023-01-19T04:08:50.001Z,20.98
2023-01-19T04:11:17.254Z,26.52
2023-01-19T04:13:44.657Z,21.10
2023-01-19T04:16:12.120Z,20.92
2023-01-19T04:18:38.839Z,22.88
2023-01-19T04:21:07.783Z,23.13
2023-01-19T04:23:34.819Z,21.88
2023-01-19T04:26:04.557Z,22.98
2023-01-19T04:28:32.890Z,25.00
2023-01-19T04:30:59.549Z,22.65
2023-01-19T04:33:27.645Z,22.85
2023-01-19T04:35:55.506Z,21.70
2023-01-19T04:38:23.720Z,21.63
2023-01-19T04:40:52.493Z,24.60
2023-01-19T04:43:20.179Z,24.08
2023-01-19T04:45:47.154Z,21.08
2023-01-19T04:48:14.410Z,21.98
2023-01-19T04:50:41.822Z,22.25
2023-01-19T04:53:09.179Z,26.38
2023-01-19T04:55:37.458Z,26.17
2023-01-19T04:58:04.136Z,21.17
2023-01-19T05:00:30.860Z,23.48
2023-01-19T05:02:57.644Z,24.70
2023-01-19T05:05:24.818Z,19.95
2023-01-19T05:07:51.393Z,23.67
2023-01-19T05:10:18.232Z,22.75
2023-01-19T05:12:44.862Z,21.95
2023-01-19T05:15:11.792Z,22.42
2023-01-19T05:17:39.167Z,19.15
2023-01-19T05:20:08.825Z,20.90
2023-01-19T05:22:35.645Z,20.35
2023-01-19T05:25:02.426Z,25.00
2023-01-19T05:27:29.070Z,20.85
2023-01-19T05:29:55.644Z,19.83
2023-01-19T05:32:22.544Z,21.02
2023-01-19T05:34:49.145Z,23.42
2023-01-19T05:37:16.071Z,18.83
2023-01-19T05:39:42.757Z,20.75
2023-01-19T05:42:09.354Z,18.58
2023-01-19T05:44:35.940Z,21.52
2023-01-19T05:47:02.594Z,18.83
2023-01-19T05:49:29.258Z,20.90
2023-01-19T05:51:55.920Z,19.83
2023-01-19T05:54:22.745Z,20.20
2023-01-19T05:56:49.369Z,20.58
2023-01-19T05:59:18.617Z,19.52
2023-01-19T06:01:45.321Z,18.20
2023-01-19T06:04:11.972Z,22.30
2023-01-19T06:06:38.891Z,21.63
2023-01-19T06:09:05.553Z,20.90
2023-01-19T06:11:32.143Z,21.95
2023-01-19T06:13:58.740Z,22.73
2023-01-19T06:16:25.437Z,25.42
2023-01-19T06:18:52.488Z,23.15
2023-01-19T06:21:19.230Z,20.58
2023-01-19T06:23:45.869Z,24.88
2023-01-19T06:26:13.427Z,22.10
2023-01-19T06:28:40.019Z,22.45
2023-01-19T06:31:06.799Z,23.63
2023-01-19T06:33:33.469Z,19.23
2023-01-19T06:36:00.151Z,20.77
2023-01-19T06:38:28.017Z,20.90
2023-01-19T06:40:59.721Z,20.55
2023-01-19T06:43:26.624Z,20.60
2023-01-19T06:45:53.488Z,19.58
2023-01-19T06:48:20.618Z,21.77
2023-01-19T06:50:48.375Z,19.50
2023-01-19T06:53:16.509Z,34.03
2023-01-19T06:55:44.137Z,29.20
2023-01-19T06:58:11.122Z,18.60
2023-01-19T07:00:38.082Z,19.05
2023-01-19T07:03:08.914Z,16.73
2023-01-19T07:05:36.261Z,16.95
2023-01-19T07:08:03.801Z,14.13
2023-01-19T07:11:22.085Z,21.83
2023-01-19T07:13:17.190Z,15.90
2023-01-19T07:15:43.974Z,17.13
2023-01-19T07:18:10.765Z,13.48
2023-01-19T07:20:37.991Z,19.85
2023-01-19T07:23:04.673Z,20.05
2023-01-19T07:25:31.622Z,20.52
2023-01-19T07:27:59.903Z,26.42
2023-01-19T07:30:26.836Z,24.38
2023-01-19T07:32:58.069Z,43.35
2023-01-19T07:35:25.477Z,37.15
2023-01-19T07:37:52.074Z,40.05
2023-01-19T07:40:18.913Z,28.95
2023-01-19T07:42:50.324Z,31.08
2023-01-19T07:45:18.264Z,32.67
2023-01-19T07:47:45.630Z,35.47
2023-01-19T07:50:13.742Z,42.88
2023-01-19T07:52:40.600Z,27.88
2023-01-19T07:55:07.951Z,31.25
2023-01-19T07:57:35.770Z,30.15
2023-01-19T08:00:03.435Z,28.55
2023-01-19T08:02:39.369Z,34.17
2023-01-19T08:05:06.517Z,19.73
2023-01-19T08:07:34.276Z,28.02
2023-01-19T08:10:00.876Z,33.13
2023-01-19T08:12:27.539Z,30.92
2023-01-19T08:14:54.218Z,28.45
2023-01-19T08:17:20.818Z,26.85
2023-01-19T08:19:47.462Z,31.38
2023-01-19T08:22:14.165Z,27.20
2023-01-19T08:24:40.777Z,30.75
2023-01-19T08:27:09.763Z,27.25
2023-01-19T08:29:36.453Z,23.40
2023-01-19T08:32:03.637Z,30.30
2023-01-19T08:34:30.955Z,25.60
2023-01-19T08:36:58.469Z,22.48
2023-01-19T08:39:26.019Z,21.33
2023-01-19T08:41:53.086Z,23.45
2023-01-19T08:44:19.937Z,23.05
2023-01-19T08:46:47.393Z,18.33
2023-01-19T08:49:14.230Z,15.82
2023-01-19T08:51:40.930Z,21.58
2023-01-19T08:54:07.614Z,19.77
2023-01-19T08:56:34.223Z,14.10
2023-01-19T08:59:09.262Z,16.23
2023-01-19T09:01:37.696Z,17.50
2023-01-19T09:04:04.694Z,19.60
2023-01-19T09:06:32.593Z,18.85
2023-01-19T09:08:59.448Z,15.57
2023-01-19T09:11:27.481Z,17.05
2023-01-19T09:13:54.296Z,19.05
2023-01-19T09:16:21.021Z,19.90
2023-01-19T09:18:47.807Z,16.83
2023-01-19T09:21:15.657Z,16.25
2023-01-19T09:23:42.408Z,21.38
2023-01-19T09:26:10.148Z,19.73
2023-01-19T09:28:38.137Z,16.25
2023-01-19T09:31:06.791Z,15.48
2023-01-19T09:33:34.246Z,17.77
2023-01-19T09:36:02.043Z,19.55
2023-01-19T09:38:32.539Z,16.33
2023-01-19T09:41:00.123Z,21.40
2023-01-19T09:43:41.222Z,17.92
2023-01-19T09:46:29.988Z,18.52
2023-01-19T09:48:59.612Z,17.00
2023-01-19T09:51:34.764Z,18.20
2023-01-19T09:54:19.197Z,23.85
2023-01-19T09:56:49.961Z,15.57
2023-01-19T09:59:47.761Z,15.98
2023-01-19T10:02:26.978Z,20.60
2023-01-19T10:05:00.590Z,18.27
2023-01-19T10:07:53.386Z,13.65
2023-01-19T10:10:31.181Z,14.00
2023-01-19T10:13:01.388Z,9.63
2023-01-19T10:15:40.444Z,11.85
2023-01-19T10:18:25.620Z,10.82
2023-01-19T10:21:06.262Z,12.27
2023-01-19T10:23:36.626Z,9.15
2023-01-19T10:26:25.051Z,8.10
2023-01-19T10:28:57.355Z,14.18
2023-01-19T10:31:25.095Z,12.60
2023-01-19T10:33:54.107Z,42.25
2023-01-19T10:36:34.086Z,17.25
2023-01-19T10:39:00.973Z,21.13
2023-01-19T10:41:40.026Z,19.15
2023-01-19T10:44:07.425Z,28.20
2023-01-19T10:46:38.959Z,34.45
2023-01-19T10:49:06.726Z,60.33
2023-01-19T10:51:33.578Z,88.95
2023-01-19T10:54:03.206Z,63.60
2023-01-19T10:56:34.677Z,75.72
2023-01-19T10:59:03.973Z,70.30
2023-01-19T11:01:31.423Z,75.15
2023-01-19T11:04:05.342Z,64.93
2023-01-19T11:06:34.171Z,47.07
2023-01-19T11:09:15.296Z,58.55
2023-01-19T11:11:45.264Z,30.33
2023-01-19T11:14:14.303Z,36.55
2023-01-19T11:16:45.333Z,32.88
2023-01-19T11:19:19.842Z,44.10
2023-01-19T11:21:46.574Z,45.40
2023-01-19T11:24:16.098Z,46.03
2023-01-19T11:26:47.885Z,43.10
2023-01-19T11:29:23.026Z,33.70
2023-01-19T11:31:51.219Z,27.13
2023-01-19T11:34:25.224Z,33.25
2023-01-19T11:36:58.591Z,42.53
2023-01-19T11:39:28.616Z,43.88
2023-01-19T11:42:03.527Z,53.72
2023-01-19T11:44:43.006Z,69.30
2023-01-19T11:47:35.980Z,68.43
2023-01-19T11:50:25.303Z,78.10
2023-01-19T11:52:59.144Z,95.07
2023-01-19T11:55:31.843Z,84.05
2023-01-19T11:57:59.278Z,82.28
2023-01-19T12:00:31.340Z,78.10
2023-01-19T12:03:27.236Z,89.90
2023-01-19T12:06:02.135Z,102.70
2023-01-19T12:11:04.954Z,119.97
2023-01-19T12:13:33.381Z,181.45
2023-01-19T12:16:10.204Z,276.75
2023-01-19T12:18:44.507Z,244.90
2023-01-19T12:21:11.227Z,471.20
2023-01-19T12:23:43.722Z,453.95
2023-01-19T12:26:16.550Z,308.38
2023-01-19T12:28:49.425Z,335.52
2023-01-19T12:31:17.844Z,329.58
2023-01-19T12:33:44.836Z,367.95
2023-01-19T12:36:26.975Z,355.63
2023-01-19T12:38:55.525Z,243.52
2023-01-19T12:41:32.869Z,277.23
2023-01-19T12:44:12.055Z,291.67
2023-01-19T12:46:47.579Z,312.52
2023-01-19T12:49:31.526Z,285.02
2023-01-19T12:52:30.488Z,248.30
2023-01-19T12:55:05.888Z,171.75
2023-01-19T12:57:51.282Z,236.05
2023-01-19T13:00:23.991Z,264.50
2023-01-19T13:03:16.273Z,369.95
2023-01-19T13:05:43.033Z,298.60
2023-01-19T13:08:09.750Z,258.55
2023-01-19T13:11:00.452Z,240.85
2023-01-19T13:13:31.822Z,235.27
2023-01-19T13:16:20.667Z,208.82
2023-01-19T13:18:53.592Z,201.48
2023-01-19T13:21:27.849Z,207.35
2023-01-19T13:24:00.303Z,215.02
2023-01-19T13:26:35.868Z,194.35
2023-01-19T13:29:07.717Z,190.32
2023-01-19T13:31:36.180Z,221.57
2023-01-19T13:34:04.112Z,208.30
2023-01-19T13:36:34.430Z,200.00
2023-01-19T13:39:04.987Z,203.52
2023-01-19T13:41:37.674Z,183.73
2023-01-19T13:44:17.072Z,182.77
2023-01-19T13:46:45.566Z,182.25
2023-01-19T13:49:29.294Z,181.23
2023-01-19T13:52:21.667Z,163.60
2023-01-19T13:55:02.687Z,162.07
2023-01-19T13:57:50.237Z,164.50
2023-01-19T14:00:20.069Z,152.07
2023-01-19T14:03:21.235Z,164.95
2023-01-19T14:05:54.341Z,146.98
2023-01-19T14:08:22.460Z,165.88
2023-01-19T14:10:52.066Z,156.45
2023-01-19T14:13:22.379Z,164.73
2023-01-19T14:15:50.793Z,157.15
2023-01-19T14:18:18.077Z,129.18
2023-01-19T14:21:03.351Z,146.20
2023-01-19T14:26:46.469Z,137.68
2023-01-19T14:29:26.488Z,131.60
2023-01-19T14:32:13.630Z,143.50
2023-01-19T14:34:49.998Z,125.55
2023-01-19T14:37:21.437Z,129.30
2023-01-19T14:40:07.969Z,134.07
2023-01-19T14:42:41.940Z,122.88
2023-01-19T14:45:20.421Z,120.53
2023-01-19T14:47:59.632Z,136.88
2023-01-19T14:50:39.063Z,128.88
2023-01-19T14:53:08.105Z,130.05
2023-01-19T14:55:39.498Z,130.05
2023-01-19T14:58:14.347Z,130.77
2023-01-19T15:03:09.954Z,132.32
2023-01-19T15:05:45.784Z,130.77
2023-01-19T15:08:15.848Z,105.13
2023-01-19T15:10:43.094Z,104.75
2023-01-19T15:13:21.147Z,113.13
2023-01-19T15:15:49.758Z,119.93
2023-01-19T15:18:20.868Z,109.10
2023-01-19T15:20:47.477Z,129.85
2023-01-19T15:23:14.118Z,118.82
2023-01-19T15:25:40.775Z,118.32
2023-01-19T15:28:12.837Z,108.85
2023-01-19T15:30:39.735Z,102.22
2023-01-19T15:33:06.435Z,109.38
2023-01-19T15:35:33.058Z,105.25
2023-01-19T15:37:59.677Z,123.60
2023-01-19T15:40:26.587Z,103.80
2023-01-19T15:42:53.246Z,106.68
2023-01-19T15:45:35.346Z,110.38
2023-01-19T15:48:05.251Z,106.00
2023-01-19T15:50:33.590Z,100.28
2023-01-19T15:53:00.254Z,100.20
2023-01-19T15:55:27.337Z,111.82
2023-01-19T15:57:54.952Z,95.05
2023-01-19T16:00:21.712Z,104.75
2023-01-19T16:02:50.127Z,90.50
2023-01-19T16:05:16.859Z,113.43
2023-01-19T16:07:43.517Z,101.32
2023-01-19T16:10:11.099Z,111.10
2023-01-19T16:12:38.175Z,102.38
2023-01-19T16:15:05.274Z,118.05
2023-01-19T16:17:32.011Z,112.75
2023-01-19T16:19:58.621Z,110.20
2023-01-19T16:22:25.359Z,111.15
2023-01-19T16:24:53.038Z,112.00
2023-01-19T16:27:19.667Z,139.38
2023-01-19T16:29:47.790Z,131.35
2023-01-19T16:32:15.630Z,114.75
2023-01-19T16:34:43.296Z,112.13
2023-01-19T16:37:10.649Z,123.78
2023-01-19T16:39:37.509Z,106.90
2023-01-19T16:42:04.328Z,108.63
2023-01-19T16:44:31.097Z,110.00
2023-01-19T16:46:57.706Z,115.18
2023-01-19T16:49:28.288Z,110.38
2023-01-19T16:51:55.993Z,128.45
2023-01-19T16:54:27.369Z,98.88
2023-01-19T16:56:56.219Z,96.07
2023-01-19T16:59:23.102Z,113.85
2023-01-19T17:01:50.948Z,103.00
2023-01-19T17:04:18.585Z,111.65
2023-01-19T17:06:46.484Z,97.35
2023-01-19T17:09:13.794Z,110.50
2023-01-19T17:11:40.664Z,107.43
2023-01-19T17:14:16.833Z,108.43
2023-01-19T17:16:44.073Z,98.40
2023-01-19T17:19:14.656Z,111.15
2023-01-19T17:21:43.051Z,109.80
2023-01-19T17:24:10.605Z,109.43
2023-01-19T17:26:37.214Z,102.65
2023-01-19T17:29:06.203Z,100.35
2023-01-19T17:31:33.518Z,98.22
2023-01-19T17:34:00.712Z,109.55
2023-01-19T17:36:28.859Z,105.80
2023-01-19T17:38:57.745Z,98.88
2023-01-19T17:41:27.598Z,112.45
2023-01-19T17:43:54.339Z,92.38
2023-01-19T17:46:23.123Z,96.72
2023-01-19T17:48:53.635Z,96.32
2023-01-19T17:51:22.734Z,92.88
2023-01-19T17:53:50.404Z,94.00
2023-01-19T17:56:21.312Z,99.18
2023-01-19T17:58:49.332Z,89.10
2023-01-19T18:01:24.802Z,99.78
2023-01-19T18:03:52.671Z,94.13
2023-01-19T18:06:20.240Z,113.68
2023-01-19T18:08:47.939Z,104.22
2023-01-19T18:11:15.725Z,94.82
2023-01-19T18:13:44.270Z,90.00
2023-01-19T18:16:14.322Z,88.30
2023-01-19T18:18:41.399Z,96.03
2023-01-19T18:21:09.947Z,94.40
2023-01-19T18:23:37.024Z,102.38
2023-01-19T18:26:09.039Z,109.55
2023-01-19T18:28:36.032Z,96.25
2023-01-19T18:31:06.836Z,90.93
2023-01-19T18:33:33.988Z,102.63
2023-01-19T18:36:00.858Z,86.55
2023-01-19T18:38:27.599Z,90.40
2023-01-19T18:41:07.540Z,86.45
2023-01-19T18:43:34.587Z,103.80
2023-01-19T18:46:01.248Z,97.18
2023-01-19T18:48:28.777Z,83.40
2023-01-19T18:50:55.722Z,103.25
2023-01-19T18:53:22.965Z,86.63
2023-01-19T18:55:52.200Z,97.07
2023-01-19T18:58:19.536Z,84.20
2023-01-19T19:00:46.280Z,93.10
2023-01-19T19:03:13.049Z,100.20
2023-01-19T19:05:39.905Z,85.68
2023-01-19T19:08:07.047Z,82.60
2023-01-19T19:10:33.735Z,85.22
2023-01-19T19:13:00.377Z,87.50
2023-01-19T19:15:27.189Z,91.50
2023-01-19T19:17:54.635Z,90.47
2023-01-19T19:20:23.266Z,88.80
2023-01-19T19:22:51.565Z,86.63
2023-01-19T19:25:18.659Z,86.57
2023-01-19T19:27:47.703Z,83.32
2023-01-19T19:30:15.022Z,84.50
2023-01-19T19:32:57.043Z,87.15
2023-01-19T19:35:24.611Z,92.70
2023-01-19T19:37:53.519Z,87.63
2023-01-19T19:40:20.178Z,90.88
2023-01-19T19:42:46.723Z,75.90
2023-01-19T19:45:14.768Z,86.32
2023-01-19T19:47:42.881Z,72.63
2023-01-19T19:50:11.503Z,57.90
2023-01-19T19:52:42.090Z,68.05
2023-01-19T19:55:10.235Z,69.68
2023-01-19T19:57:37.074Z,67.45
2023-01-19T20:00:05.066Z,73.95
2023-01-19T20:02:36.461Z,63.45
2023-01-19T20:05:03.620Z,67.63
2023-01-19T20:07:30.274Z,68.63
2023-01-19T20:09:56.976Z,65.78
2023-01-19T20:12:23.571Z,60.63
2023-01-19T20:14:50.178Z,51.50
2023-01-19T20:17:16.883Z,60.35
2023-01-19T20:19:45.460Z,53.03
2023-01-19T20:22:12.156Z,55.28
2023-01-19T20:24:39.314Z,63.15
2023-01-19T20:27:05.903Z,65.03
2023-01-19T20:29:32.532Z,55.13
2023-01-19T20:31:59.197Z,54.03
2023-01-19T20:34:32.062Z,58.58
2023-01-19T20:37:00.504Z,57.25
2023-01-19T20:39:28.893Z,61.53
2023-01-19T20:41:55.884Z,64.68
2023-01-19T20:44:24.812Z,56.42
2023-01-19T20:46:52.851Z,61.33
2023-01-19T20:49:19.898Z,74.22
2023-01-19T20:51:46.787Z,88.35
2023-01-19T20:54:16.185Z,74.47
2023-01-19T20:56:42.862Z,72.45
2023-01-19T20:59:10.460Z,94.93
2023-01-19T21:01:37.946Z,77.25
2023-01-19T21:04:04.828Z,91.07
2023-01-19T21:06:31.823Z,67.57
2023-01-19T21:08:58.506Z,69.35
2023-01-19T21:11:25.681Z,94.13
2023-01-19T21:13:55.713Z,75.28
2023-01-19T21:16:28.311Z,84.68
2023-01-19T21:18:56.027Z,75.60
2023-01-19T21:21:30.714Z,79.47
2023-01-19T21:24:00.073Z,71.85
2023-01-19T21:26:29.553Z,86.40
2023-01-19T21:29:01.565Z,82.13
2023-01-19T21:31:28.678Z,71.53
2023-01-19T21:33:56.697Z,76.50
2023-01-19T21:36:24.456Z,67.00
2023-01-19T21:38:52.153Z,82.53
2023-01-19T21:41:19.053Z,77.13
2023-01-19T21:43:45.957Z,63.88
2023-01-19T21:46:21.502Z,61.83
2023-01-19T21:48:48.418Z,69.47
2023-01-19T21:51:15.727Z,52.50
2023-01-19T21:53:42.344Z,59.42
2023-01-19T21:56:10.466Z,66.10
2023-01-19T21:58:37.384Z,59.28
2023-01-19T22:01:10.586Z,78.03
2023-01-19T22:03:37.332Z,68.93
2023-01-19T22:06:05.831Z,62.63
2023-01-19T22:08:33.104Z,82.53
2023-01-19T22:11:10.345Z,64.85
2023-01-19T22:13:40.529Z,65.82
2023-01-19T22:16:13.191Z,57.75
2023-01-19T22:18:42.616Z,59.05
2023-01-19T22:21:15.550Z,55.25
2023-01-19T22:23:43.094Z,52.38
2023-01-19T22:26:11.352Z,62.80
2023-01-19T22:28:38.418Z,72.85
2023-01-19T22:31:07.279Z,68.90
2023-01-19T22:33:34.961Z,75.78
2023-01-19T22:36:15.653Z,51.20
2023-01-19T22:38:44.058Z,58.53
2023-01-19T22:41:35.125Z,55.22
2023-01-19T22:44:07.658Z,56.80
2023-01-19T22:46:36.646Z,54.28
2023-01-19T22:49:04.884Z,53.10
2023-01-19T22:51:32.759Z,51.63
2023-01-19T22:53:59.988Z,55.30
2023-01-19T22:56:29.468Z,71.40
2023-01-19T22:58:57.077Z,67.95
2023-01-19T23:01:30.077Z,79.30
2023-01-19T23:03:57.228Z,81.72
2023-01-19T23:06:29.944Z,69.22
2023-01-19T23:08:59.995Z,74.93
2023-01-19T23:11:30.099Z,66.15
2023-01-19T23:13:58.651Z,56.53
2023-01-19T23:16:25.365Z,54.65
2023-01-19T23:18:57.691Z,53.78
2023-01-19T23:21:27.107Z,55.78
2023-01-19T23:24:02.191Z,54.05
2023-01-19T23:26:30.721Z,52.88
2023-01-19T23:29:01.552Z,61.72
2023-01-19T23:31:33.887Z,67.22
2023-01-19T23:34:03.550Z,56.75
2023-01-19T23:36:32.774Z,60.50
2023-01-19T23:39:04.270Z,53.58
2023-01-19T23:41:34.320Z,49.95
2023-01-19T23:44:01.452Z,56.30
2023-01-19T23:46:28.682Z,55.40
2023-01-19T23:48:55.560Z,52.88
2023-01-19T23:51:25.182Z,58.78
2023-01-19T23:53:52.430Z,54.03
2023-01-19T23:56:29.635Z,53.95
2023-01-19T23:58:59.497Z,56.63
